Time;durP1;ratioP1;P1;durP2;ratioP2;P2;SDS_P1;SDS_P2;PMS_P1;PMS_P2;Temp;Humidity;BMP_temperature;BMP_pressure;BME280_temperature;BME280_humidity;BME280_pressure;Samples;Min_cycle;Max_cycle;Signal;HPM_P1;HPM_P2
2023/04/03 00:00:22;;;;;;;4.82;2.67;;;;;;;;;;5025674;28;20052;-80
2023/04/03 00:02:48;;;;;;;3.50;2.70;;;;;;;;;;5049385;28;20079;-80
2023/04/03 00:05:14;;;;;;;3.00;2.38;;;;;;;;;;5047234;28;20077;-80
2023/04/03 00:07:40;;;;;;;3.92;2.42;;;;;;;;;;5021153;28;20049;-80
2023/04/03 00:10:06;;;;;;;3.15;2.22;;;;;;;;;;5026812;28;20053;-80
2023/04/03 00:12:32;;;;;;;3.55;2.10;;;;;;;;;;5014752;28;20133;-81
2023/04/03 00:14:58;;;;;;;4.75;2.40;;;;;;;;;;5028657;28;21467;-80
2023/04/03 00:17:24;;;;;;;2.90;2.45;;;;;;;;;;5026749;28;20508;-80
2023/04/03 00:19:50;;;;;;;2.80;2.05;;;;;;;;;;5033807;28;20145;-79
2023/04/03 00:22:16;;;;;;;3.50;2.72;;;;;;;;;;5028309;28;20120;-80
2023/04/03 00:24:42;;;;;;;3.72;2.47;;;;;;;;;;5013697;28;20046;-80
2023/04/03 00:27:09;;;;;;;3.50;2.50;;;;;;;;;;5030671;28;20067;-80
2023/04/03 00:29:35;;;;;;;3.30;2.22;;;;;;;;;;5028044;28;20045;-80
2023/04/03 00:32:01;;;;;;;3.55;2.33;;;;;;;;;;5018755;28;20130;-80
2023/04/03 00:34:27;;;;;;;2.83;2.50;;;;;;;;;;5014836;28;20069;-80
2023/04/03 00:36:53;;;;;;;3.30;2.35;;;;;;;;;;5015836;28;20089;-80
2023/04/03 00:39:19;;;;;;;3.45;2.38;;;;;;;;;;5038568;28;20045;-79
2023/04/03 00:41:45;;;;;;;3.95;2.80;;;;;;;;;;5016091;28;20050;-81
2023/04/03 00:44:20;;;;;;;2.55;2.35;;;;;;;;;;5032079;28;20049;-80
2023/04/03 00:46:46;;;;;;;4.10;2.70;;;;;;;;;;5013242;28;21432;-80
2023/04/03 00:49:12;;;;;;;3.58;2.40;;;;;;;;;;5014587;28;20155;-81
2023/04/03 00:51:38;;;;;;;3.22;2.70;;;;;;;;;;5024192;28;20099;-80
2023/04/03 00:54:05;;;;;;;5.05;2.53;;;;;;;;;;5052035;28;20048;-80
2023/04/03 00:56:31;;;;;;;4.00;2.67;;;;;;;;;;5028589;28;20050;-80
2023/04/03 00:59:00;;;;;;;3.83;2.53;;;;;;;;;;5037329;28;20583;-80
2023/04/03 01:01:27;;;;;;;2.78;2.50;;;;;;;;;;5013844;28;20048;-80
2023/04/03 01:03:53;;;;;;;2.67;2.40;;;;;;;;;;5030871;28;20079;-80
2023/04/03 01:06:26;;;;;;;5.05;2.92;;;;;;;;;;5030581;28;20119;-81
2023/04/03 01:08:53;;;;;;;3.42;2.42;;;;;;;;;;5012803;28;20136;-80
2023/04/03 01:11:20;;;;;;;3.50;2.72;;;;;;;;;;5042787;28;20424;-80
2023/04/03 01:13:46;;;;;;;3.20;2.63;;;;;;;;;;5034988;28;20064;-79
2023/04/03 01:16:12;;;;;;;6.10;3.10;;;;;;;;;;5039470;28;20037;-81
2023/04/03 01:18:39;;;;;;;3.72;2.80;;;;;;;;;;5039916;28;20045;-80
2023/04/03 01:21:15;;;;;;;4.85;2.92;;;;;;;;;;5020412;28;20045;-80
2023/04/03 01:23:47;;;;;;;3.03;2.80;;;;;;;;;;5032934;28;20088;-80
2023/04/03 01:26:13;;;;;;;4.95;2.90;;;;;;;;;;5012987;28;20041;-80
2023/04/03 01:28:39;;;;;;;4.47;3.00;;;;;;;;;;5028564;28;20073;-79
2023/04/03 01:31:08;;;;;;;3.92;3.20;;;;;;;;;;5015743;28;20084;-80
2023/04/03 01:33:35;;;;;;;3.10;2.72;;;;;;;;;;5028408;28;20124;-80
2023/04/03 01:36:01;;;;;;;4.80;3.00;;;;;;;;;;5038566;28;20080;-80
2023/04/03 01:38:27;;;;;;;3.75;2.72;;;;;;;;;;5041366;28;20102;-80
2023/04/03 01:40:53;;;;;;;3.95;3.10;;;;;;;;;;5038287;28;20041;-81
2023/04/03 01:43:19;;;;;;;5.13;2.80;;;;;;;;;;5032811;28;20053;-80
2023/04/03 01:45:46;;;;;;;3.00;2.70;;;;;;;;;;5013865;28;20045;-79
2023/04/03 01:48:13;;;;;;;4.63;2.88;;;;;;;;;;5008429;28;20053;-80
2023/04/03 01:50:39;;;;;;;4.03;3.00;;;;;;;;;;5034748;28;20041;-80
2023/04/03 01:53:05;;;;;;;4.88;2.63;;;;;;;;;;5029264;28;20111;-80
2023/04/03 01:55:31;;;;;;;5.28;3.10;;;;;;;;;;5044980;28;20060;-80
2023/04/03 01:57:57;;;;;;;4.68;2.70;;;;;;;;;;5040022;28;20041;-80
2023/04/03 02:00:23;;;;;;;5.55;2.92;;;;;;;;;;5011672;28;20066;-81
2023/04/03 02:02:49;;;;;;;6.22;2.97;;;;;;;;;;5028402;28;20462;-80
2023/04/03 02:05:15;;;;;;;4.55;2.65;;;;;;;;;;5013142;28;20136;-80
2023/04/03 02:07:41;;;;;;;5.00;2.60;;;;;;;;;;5007227;28;20037;-81
2023/04/03 02:10:08;;;;;;;4.53;2.88;;;;;;;;;;5014536;28;20447;-81
2023/04/03 02:12:34;;;;;;;5.88;2.67;;;;;;;;;;5015885;28;20056;-80
2023/04/03 02:15:00;;;;;;;4.03;2.70;;;;;;;;;;5012488;28;20176;-81
2023/04/03 02:17:26;;;;;;;3.97;2.60;;;;;;;;;;5014025;28;20735;-80
2023/04/03 02:19:52;;;;;;;2.80;2.30;;;;;;;;;;5012040;28;20056;-81
2023/04/03 02:22:19;;;;;;;6.47;3.15;;;;;;;;;;5018675;28;20092;-81
2023/04/03 02:24:45;;;;;;;2.67;2.47;;;;;;;;;;5012873;28;20042;-80
2023/04/03 02:27:11;;;;;;;3.17;2.63;;;;;;;;;;5012428;28;20045;-81
2023/04/03 02:29:37;;;;;;;2.92;2.33;;;;;;;;;;5029507;28;20044;-81
2023/04/03 02:32:04;;;;;;;4.93;2.50;;;;;;;;;;5013380;28;20492;-81
2023/04/03 02:34:30;;;;;;;4.38;2.67;;;;;;;;;;5027046;28;20705;-80
2023/04/03 02:36:56;;;;;;;4.25;2.50;;;;;;;;;;5026752;28;20488;-81
2023/04/03 02:39:22;;;;;;;4.03;2.65;;;;;;;;;;5031658;28;20057;-80
2023/04/03 02:41:48;;;;;;;3.00;2.67;;;;;;;;;;5032313;28;20405;-80
2023/04/03 02:44:14;;;;;;;4.70;2.55;;;;;;;;;;5028028;28;20056;-81
2023/04/03 02:46:40;;;;;;;3.92;2.78;;;;;;;;;;5028919;28;20061;-80
2023/04/03 02:49:06;;;;;;;4.65;2.47;;;;;;;;;;5031426;28;20045;-80
2023/04/03 02:51:32;;;;;;;3.65;2.58;;;;;;;;;;5036329;28;20562;-80
2023/04/03 02:53:58;;;;;;;4.00;2.70;;;;;;;;;;5010708;28;20052;-81
2023/04/03 02:56:24;;;;;;;4.43;2.80;;;;;;;;;;5035495;28;20064;-80
2023/04/03 02:58:50;;;;;;;2.72;2.42;;;;;;;;;;5009903;28;20041;-80
2023/04/03 03:01:16;;;;;;;4.28;2.55;;;;;;;;;;5011638;28;20041;-81
2023/04/03 03:03:42;;;;;;;3.58;2.65;;;;;;;;;;5028037;28;20046;-80
2023/04/03 03:06:10;;;;;;;3.22;2.55;;;;;;;;;;5026452;28;20041;-81
2023/04/03 03:08:36;;;;;;;3.10;2.47;;;;;;;;;;5028170;28;20088;-80
2023/04/03 03:11:02;;;;;;;5.95;2.70;;;;;;;;;;5047453;28;20554;-80
2023/04/03 03:13:29;;;;;;;6.13;2.78;;;;;;;;;;5047046;28;20361;-80
2023/04/03 03:15:55;;;;;;;5.22;2.72;;;;;;;;;;5036616;28;20044;-81
2023/04/03 03:18:21;;;;;;;4.20;2.67;;;;;;;;;;5028454;28;20559;-80
2023/04/03 03:20:51;;;;;;;3.70;2.60;;;;;;;;;;5045658;28;20048;-80
2023/04/03 03:23:17;;;;;;;4.13;2.90;;;;;;;;;;5051965;28;20128;-81
2023/04/03 03:25:43;;;;;;;3.25;2.70;;;;;;;;;;5019724;28;20194;-81
2023/04/03 03:28:09;;;;;;;5.20;2.63;;;;;;;;;;5036079;28;20439;-81
2023/04/03 03:30:35;;;;;;;3.65;2.55;;;;;;;;;;5032625;28;20571;-81
2023/04/03 03:33:01;;;;;;;5.88;2.60;;;;;;;;;;5039173;28;20097;-80
2023/04/03 03:35:27;;;;;;;4.95;3.05;;;;;;;;;;5039944;28;20532;-81
2023/04/03 03:37:53;;;;;;;3.60;2.85;;;;;;;;;;5011755;28;20045;-81
2023/04/03 03:40:19;;;;;;;3.28;2.47;;;;;;;;;;5020023;28;20053;-81
2023/04/03 03:42:45;;;;;;;5.13;2.80;;;;;;;;;;5031878;28;20041;-80
2023/04/03 03:45:11;;;;;;;7.00;2.97;;;;;;;;;;5016188;28;20048;-80
2023/04/03 03:47:37;;;;;;;4.03;2.60;;;;;;;;;;5019633;28;20045;-80
2023/04/03 03:50:04;;;;;;;4.10;2.63;;;;;;;;;;5029413;28;20044;-80
2023/04/03 03:52:30;;;;;;;3.88;2.90;;;;;;;;;;5014770;28;20052;-80
2023/04/03 03:54:56;;;;;;;5.28;2.90;;;;;;;;;;5010132;28;20079;-81
2023/04/03 03:57:22;;;;;;;5.45;2.67;;;;;;;;;;5012993;28;20054;-81
2023/04/03 03:59:48;;;;;;;5.43;2.97;;;;;;;;;;5013435;28;20052;-82
2023/04/03 04:02:16;;;;;;;4.88;2.80;;;;;;;;;;5017063;28;20052;-81
2023/04/03 04:04:42;;;;;;;4.35;3.30;;;;;;;;;;5016934;28;20110;-81
2023/04/03 04:07:08;;;;;;;4.72;2.83;;;;;;;;;;5031076;28;20037;-81
2023/04/03 04:09:34;;;;;;;6.57;2.88;;;;;;;;;;5029894;28;20037;-81
2023/04/03 04:12:00;;;;;;;6.03;3.05;;;;;;;;;;5013151;28;20057;-80
2023/04/03 04:14:26;;;;;;;4.07;2.97;;;;;;;;;;5015889;28;20045;-81
2023/04/03 04:16:52;;;;;;;6.15;3.15;;;;;;;;;;5030958;28;20044;-80
2023/04/03 04:19:18;;;;;;;4.47;3.13;;;;;;;;;;5012382;28;20053;-80
2023/04/03 04:21:45;;;;;;;3.80;2.85;;;;;;;;;;5014870;28;20072;-80
2023/04/03 04:24:11;;;;;;;5.68;2.97;;;;;;;;;;5030617;28;20044;-81
2023/04/03 04:26:37;;;;;;;5.18;2.80;;;;;;;;;;5029288;28;20473;-80
2023/04/03 04:29:03;;;;;;;4.57;3.67;;;;;;;;;;5034233;28;20128;-81
2023/04/03 04:31:29;;;;;;;4.90;3.22;;;;;;;;;;5032002;28;20405;-80
2023/04/03 04:33:55;;;;;;;4.10;3.08;;;;;;;;;;5028224;28;20049;-81
2023/04/03 04:36:21;;;;;;;8.93;3.20;;;;;;;;;;5018126;28;20040;-80
2023/04/03 04:38:47;;;;;;;5.53;3.13;;;;;;;;;;5034920;28;20049;-80
2023/04/03 04:41:14;;;;;;;6.88;3.17;;;;;;;;;;5016289;28;20080;-81
2023/04/03 04:43:40;;;;;;;5.30;3.00;;;;;;;;;;5015575;28;20053;-80
2023/04/03 04:46:08;;;;;;;4.90;2.90;;;;;;;;;;5032794;28;20076;-80
2023/04/03 04:48:34;;;;;;;5.63;3.45;;;;;;;;;;5032586;28;20077;-80
2023/04/03 04:51:01;;;;;;;6.13;3.05;;;;;;;;;;5014455;28;20537;-80
2023/04/03 04:53:27;;;;;;;7.53;3.22;;;;;;;;;;5035918;28;20041;-78
2023/04/03 04:55:53;;;;;;;7.13;3.10;;;;;;;;;;5038684;28;20057;-79
2023/04/03 04:58:19;;;;;;;5.20;2.88;;;;;;;;;;5028796;28;20037;-78
2023/04/03 05:00:45;;;;;;;6.10;3.50;;;;;;;;;;5034866;28;20048;-78
2023/04/03 05:03:11;;;;;;;4.70;3.53;;;;;;;;;;5013088;28;20044;-78
2023/04/03 05:05:37;;;;;;;5.72;3.13;;;;;;;;;;5011666;28;20049;-79
2023/04/03 05:08:04;;;;;;;6.40;3.10;;;;;;;;;;5042895;28;20033;-79
2023/04/03 05:10:31;;;;;;;5.65;3.60;;;;;;;;;;5049974;28;20041;-79
2023/04/03 05:12:57;;;;;;;5.75;3.30;;;;;;;;;;5053835;28;20055;-79
2023/04/03 05:15:23;;;;;;;7.35;3.03;;;;;;;;;;5017495;28;20049;-78
2023/04/03 05:17:50;;;;;;;4.45;3.17;;;;;;;;;;5033227;28;20838;-78
2023/04/03 05:20:17;;;;;;;6.95;3.22;;;;;;;;;;5045067;28;20393;-78
2023/04/03 05:22:43;;;;;;;8.68;3.00;;;;;;;;;;5017894;28;20053;-78
2023/04/03 05:25:09;;;;;;;5.65;3.35;;;;;;;;;;5047856;28;20120;-79
2023/04/03 05:27:35;;;;;;;5.85;2.97;;;;;;;;;;5050003;28;20123;-78
2023/04/03 05:30:01;;;;;;;3.42;3.10;;;;;;;;;;5047753;28;20112;-79
2023/04/03 05:32:27;;;;;;;7.10;3.30;;;;;;;;;;5022521;28;20101;-79
2023/04/03 05:34:54;;;;;;;7.20;3.20;;;;;;;;;;5033597;28;20448;-78
2023/04/03 05:37:20;;;;;;;6.20;3.35;;;;;;;;;;5041294;28;20671;-78
2023/04/03 05:39:46;;;;;;;5.53;3.20;;;;;;;;;;5017512;28;20048;-79
2023/04/03 05:42:13;;;;;;;7.47;3.70;;;;;;;;;;5039374;28;20045;-78
2023/04/03 05:44:40;;;;;;;9.68;3.38;;;;;;;;;;5042188;28;20099;-79
2023/04/03 05:47:06;;;;;;;6.82;3.53;;;;;;;;;;5035686;28;20086;-78
2023/04/03 05:49:33;;;;;;;6.78;3.40;;;;;;;;;;5014920;28;20041;-78
2023/04/03 05:51:59;;;;;;;7.22;3.72;;;;;;;;;;5038373;28;20095;-78
2023/04/03 05:54:29;;;;;;;5.10;3.38;;;;;;;;;;5013454;28;20045;-79
2023/04/03 05:56:56;;;;;;;7.10;3.90;;;;;;;;;;5031110;28;20106;-79
2023/04/03 05:59:22;;;;;;;6.90;3.22;;;;;;;;;;5027767;28;20123;-79
2023/04/03 06:01:48;;;;;;;5.32;3.50;;;;;;;;;;5015824;28;20499;-78
2023/04/03 06:04:14;;;;;;;6.13;3.30;;;;;;;;;;5036996;28;20046;-78
2023/04/03 06:06:51;;;;;;;7.25;3.53;;;;;;;;;;5019487;28;20763;-79
2023/04/03 06:09:18;;;;;;;7.30;3.60;;;;;;;;;;5016989;28;20136;-78
2023/04/03 06:11:44;;;;;;;8.48;4.15;;;;;;;;;;5013567;28;20131;-79
2023/04/03 06:14:11;;;;;;;5.95;3.70;;;;;;;;;;5017745;28;20132;-79
2023/04/03 06:16:38;;;;;;;8.63;3.58;;;;;;;;;;5028567;28;20515;-79
2023/04/03 06:19:04;;;;;;;8.50;3.78;;;;;;;;;;5025490;28;20139;-78
2023/04/03 06:21:30;;;;;;;7.00;3.70;;;;;;;;;;5029782;28;20543;-79
2023/04/03 06:23:56;;;;;;;7.82;3.72;;;;;;;;;;5030408;28;20045;-79
2023/04/03 06:26:22;;;;;;;8.63;4.03;;;;;;;;;;5028191;28;20520;-78
2023/04/03 06:28:48;;;;;;;6.45;4.30;;;;;;;;;;5014283;28;20046;-78
2023/04/03 06:31:14;;;;;;;7.78;4.07;;;;;;;;;;5012790;28;20095;-78
2023/04/03 06:33:40;;;;;;;5.97;3.72;;;;;;;;;;5030270;28;20049;-79
2023/04/03 06:36:07;;;;;;;8.60;4.35;;;;;;;;;;5009312;28;20136;-78
2023/04/03 06:38:36;;;;;;;7.88;3.50;;;;;;;;;;5014370;28;20073;-78
2023/04/03 06:41:02;;;;;;;4.78;3.60;;;;;;;;;;5034837;28;20079;-80
2023/04/03 06:43:28;;;;;;;6.75;3.97;;;;;;;;;;5015558;28;20049;-80
2023/04/03 06:45:54;;;;;;;7.28;3.65;;;;;;;;;;5015730;28;20111;-81
2023/04/03 06:48:21;;;;;;;6.93;3.50;;;;;;;;;;5016974;28;20053;-79
2023/04/03 06:50:47;;;;;;;5.88;3.47;;;;;;;;;;5017303;28;20046;-80
2023/04/03 06:53:13;;;;;;;8.70;3.78;;;;;;;;;;5014485;28;20045;-79
2023/04/03 06:55:39;;;;;;;7.07;3.60;;;;;;;;;;5036507;28;20467;-78
2023/04/03 06:58:05;;;;;;;7.57;3.60;;;;;;;;;;5038395;28;20092;-79
2023/04/03 07:00:31;;;;;;;6.20;3.83;;;;;;;;;;5029142;28;20571;-78
2023/04/03 07:02:57;;;;;;;6.90;3.35;;;;;;;;;;5034462;28;20041;-79
2023/04/03 07:05:24;;;;;;;3.88;3.20;;;;;;;;;;5014582;28;20098;-79
2023/04/03 07:07:51;;;;;;;9.18;3.65;;;;;;;;;;5033115;28;20049;-80
2023/04/03 07:10:20;;;;;;;9.10;3.63;;;;;;;;;;5033042;28;20505;-78
2023/04/03 07:12:46;;;;;;;4.78;3.05;;;;;;;;;;5034178;28;20417;-79
2023/04/03 07:15:13;;;;;;;6.72;3.35;;;;;;;;;;5035228;28;24383;-79
2023/04/03 07:17:39;;;;;;;6.93;3.35;;;;;;;;;;5019730;28;20163;-79
2023/04/03 07:20:05;;;;;;;7.85;3.20;;;;;;;;;;5043182;28;20520;-78
2023/04/03 07:22:31;;;;;;;6.22;3.42;;;;;;;;;;5016789;28;20079;-79
2023/04/03 07:24:58;;;;;;;6.72;3.50;;;;;;;;;;5034267;28;20041;-79
2023/04/03 07:27:25;;;;;;;5.75;3.75;;;;;;;;;;5014542;28;20548;-79
2023/04/03 07:29:51;;;;;;;9.73;3.20;;;;;;;;;;5044324;28;20804;-79
2023/04/03 07:32:17;;;;;;;6.85;3.45;;;;;;;;;;5014155;28;20403;-79
2023/04/03 07:34:44;;;;;;;7.45;3.58;;;;;;;;;;5022591;28;20055;-79
2023/04/03 07:37:10;;;;;;;6.38;3.60;;;;;;;;;;5048181;28;20029;-79
2023/04/03 07:39:36;;;;;;;6.65;3.22;;;;;;;;;;5031902;28;20059;-79
2023/04/03 07:42:02;;;;;;;4.50;3.17;;;;;;;;;;5029200;28;20045;-79
2023/04/03 07:44:28;;;;;;;5.78;3.22;;;;;;;;;;5016068;28;20037;-79
2023/04/03 07:46:55;;;;;;;5.55;3.35;;;;;;;;;;5016687;28;20481;-78
2023/04/03 07:49:23;;;;;;;8.25;3.20;;;;;;;;;;5028691;28;20053;-79
2023/04/03 07:51:49;;;;;;;5.40;3.45;;;;;;;;;;5023996;28;20045;-79
2023/04/03 07:54:16;;;;;;;5.25;3.00;;;;;;;;;;5033238;28;20060;-79
2023/04/03 07:56:42;;;;;;;4.43;3.45;;;;;;;;;;5039336;28;20051;-76
2023/04/03 07:59:10;;;;;;;7.18;4.88;;;;;;;;;;5044609;28;20119;-79
2023/04/03 08:01:36;;;;;;;6.80;3.38;;;;;;;;;;5012405;28;20485;-79
2023/04/03 08:04:02;;;;;;;4.30;3.33;;;;;;;;;;5016122;28;20092;-78
2023/04/03 08:06:29;;;;;;;5.03;3.15;;;;;;;;;;5047145;28;20080;-78
2023/04/03 08:08:55;;;;;;;5.15;3.00;;;;;;;;;;5031171;28;20054;-78
2023/04/03 08:11:23;;;;;;;6.47;3.05;;;;;;;;;;5032078;28;20050;-78
2023/04/03 08:13:49;;;;;;;5.00;3.30;;;;;;;;;;5015289;28;20056;-79
2023/04/03 08:16:20;;;;;;;5.95;3.22;;;;;;;;;;5039508;28;20047;-78
2023/04/03 08:18:46;;;;;;;6.53;3.00;;;;;;;;;;5013739;28;20099;-78
2023/04/03 08:21:13;;;;;;;4.20;2.72;;;;;;;;;;5021922;28;20066;-79
2023/04/03 08:23:40;;;;;;;4.53;3.28;;;;;;;;;;5013385;28;20049;-79
2023/04/03 08:26:11;;;;;;;7.63;3.28;;;;;;;;;;5015076;28;20052;-79
2023/04/03 08:28:37;;;;;;;6.22;3.00;;;;;;;;;;5024874;28;20444;-78
2023/04/03 08:31:05;;;;;;;4.60;2.80;;;;;;;;;;5039548;28;20554;-79
2023/04/03 08:33:32;;;;;;;5.95;3.03;;;;;;;;;;5032614;28;20045;-79
2023/04/03 08:35:58;;;;;;;7.50;3.20;;;;;;;;;;5049858;28;20053;-78
2023/04/03 08:38:24;;;;;;;8.20;3.38;;;;;;;;;;5016991;28;20049;-79
2023/04/03 08:41:11;;;;;;;4.35;3.13;;;;;;;;;;5013497;28;20490;-79
2023/04/03 08:44:13;;;;;;;5.45;3.22;;;;;;;;;;5008286;28;20132;-79
2023/04/03 08:47:02;;;;;;;6.68;3.28;;;;;;;;;;4975584;28;20046;-79
2023/04/03 08:49:38;;;;;;;6.15;2.75;;;;;;;;;;5035803;28;20160;-79
2023/04/03 08:52:12;;;;;;;4.90;2.88;;;;;;;;;;5017397;28;20045;-78
2023/04/03 08:54:48;;;;;;;4.95;2.85;;;;;;;;;;5035393;28;20133;-78
2023/04/03 08:57:15;;;;;;;5.47;2.75;;;;;;;;;;5034725;28;20124;-79
2023/04/03 08:59:41;;;;;;;3.72;2.22;;;;;;;;;;5036463;28;20049;-79
2023/04/03 09:02:32;;;;;;;7.10;2.78;;;;;;;;;;5044514;28;20362;-78
2023/04/03 09:04:59;;;;;;;3.83;2.45;;;;;;;;;;5019798;28;20045;-79
2023/04/03 09:07:42;;;;;;;5.35;2.85;;;;;;;;;;5039786;28;20046;-79
2023/04/03 09:10:10;;;;;;;3.67;2.30;;;;;;;;;;5033294;28;20041;-79
2023/04/03 09:12:39;;;;;;;3.95;2.40;;;;;;;;;;5044086;28;20037;-79
2023/04/03 09:15:08;;;;;;;3.78;2.50;;;;;;;;;;5042461;28;20052;-79
2023/04/03 09:17:41;;;;;;;5.05;2.50;;;;;;;;;;5046122;28;20087;-79
2023/04/03 09:20:13;;;;;;;4.38;2.55;;;;;;;;;;5019746;28;20046;-80
2023/04/03 09:22:44;;;;;;;3.85;2.10;;;;;;;;;;5044217;28;20041;-79
2023/04/03 09:25:42;;;;;;;5.75;2.30;;;;;;;;;;5019241;28;20117;-79
2023/04/03 09:28:09;;;;;;;4.63;2.40;;;;;;;;;;5029700;28;20053;-80
2023/04/03 09:30:37;;;;;;;2.75;1.98;;;;;;;;;;5027964;28;20049;-80
2023/04/03 09:33:03;;;;;;;4.30;2.20;;;;;;;;;;5042812;28;20501;-79
2023/04/03 09:35:34;;;;;;;3.40;2.35;;;;;;;;;;5040983;28;20056;-78
2023/04/03 09:38:09;;;;;;;4.55;2.25;;;;;;;;;;5011916;28;20053;-79
2023/04/03 09:40:40;;;;;;;3.25;2.17;;;;;;;;;;5014991;28;20038;-79
2023/04/03 09:43:18;;;;;;;3.53;2.50;;;;;;;;;;5030966;28;20413;-79
2023/04/03 09:45:46;;;;;;;2.42;2.13;;;;;;;;;;5032350;28;20086;-78
2023/04/03 09:48:15;;;;;;;2.33;1.88;;;;;;;;;;5020838;28;20056;-78
2023/04/03 09:50:56;;;;;;;2.20;2.00;;;;;;;;;;5015276;28;20382;-79
2023/04/03 09:53:29;;;;;;;2.28;2.05;;;;;;;;;;5035412;28;20049;-79
2023/04/03 09:55:56;;;;;;;2.47;2.08;;;;;;;;;;5014139;28;20049;-79
2023/04/03 09:58:25;;;;;;;2.70;2.10;;;;;;;;;;5019380;28;20115;-80
2023/04/03 10:00:55;;;;;;;3.33;2.00;;;;;;;;;;5015306;28;20045;-79
2023/04/03 10:03:46;;;;;;;2.95;2.00;;;;;;;;;;5030184;28;20501;-79
2023/04/03 10:06:23;;;;;;;4.70;2.10;;;;;;;;;;5015055;28;20041;-79
2023/04/03 10:09:05;;;;;;;2.08;1.88;;;;;;;;;;5015979;28;20107;-78
2023/04/03 10:11:31;;;;;;;3.50;2.00;;;;;;;;;;5034812;28;20183;-78
2023/04/03 10:14:01;;;;;;;2.00;1.80;;;;;;;;;;5016387;28;20041;-79
2023/04/03 10:16:33;;;;;;;2.33;1.80;;;;;;;;;;5041029;28;20060;-78
2023/04/03 10:19:20;;;;;;;2.78;1.90;;;;;;;;;;5033741;28;20056;-79
2023/04/03 10:21:55;;;;;;;2.65;1.90;;;;;;;;;;5022821;28;20057;-79
2023/04/03 10:24:39;;;;;;;3.72;1.77;;;;;;;;;;5023145;28;20091;-79
2023/04/03 10:27:13;;;;;;;2.70;1.88;;;;;;;;;;5020888;28;20044;-79
2023/04/03 10:29:39;;;;;;;;;;;;;;;;;;5016985;28;20493;-79
2023/04/03 10:32:11;;;;;;;2.58;1.63;;;;;;;;;;5017848;28;19928;-79
2023/04/03 10:34:40;;;;;;;3.15;1.70;;;;;;;;;;5034416;28;20045;-80
2023/04/03 10:37:26;;;;;;;2.60;1.90;;;;;;;;;;5018929;28;20075;-80
2023/04/03 10:40:01;;;;;;;2.55;1.95;;;;;;;;;;5021522;28;20053;-80
2023/04/03 10:42:37;;;;;;;2.53;1.88;;;;;;;;;;5033195;28;20085;-79
2023/04/03 10:45:21;;;;;;;3.20;1.95;;;;;;;;;;5021148;28;20453;-79
2023/04/03 10:47:55;;;;;;;1.95;1.75;;;;;;;;;;5039134;28;20136;-80
2023/04/03 10:50:32;;;;;;;1.70;1.60;;;;;;;;;;5034181;28;20682;-80
2023/04/03 10:53:04;;;;;;;2.97;1.88;;;;;;;;;;5031897;28;20509;-72
2023/04/03 10:55:39;;;;;;;4.65;2.65;;;;;;;;;;5009685;28;20057;-81
2023/04/03 10:58:07;;;;;;;2.03;1.90;;;;;;;;;;5034265;28;20041;-80
2023/04/03 11:00:43;;;;;;;2.38;1.90;;;;;;;;;;5036414;28;20120;-80
2023/04/03 11:03:30;;;;;;;3.55;2.03;;;;;;;;;;5029489;28;20042;-81
2023/04/03 11:05:58;;;;;;;2.45;1.77;;;;;;;;;;5011782;28;20047;-81
2023/04/03 11:08:26;;;;;;;2.25;1.80;;;;;;;;;;5035421;28;20048;-81
2023/04/03 11:10:54;;;;;;;2.20;1.70;;;;;;;;;;5010969;28;20523;-80
2023/04/03 11:13:39;;;;;;;1.98;1.77;;;;;;;;;;5033741;28;20064;-81
2023/04/03 11:16:05;;;;;;;2.83;1.77;;;;;;;;;;5015583;28;20072;-81
2023/04/03 11:18:46;;;;;;;3.70;1.90;;;;;;;;;;5023438;28;20045;-81
2023/04/03 11:21:31;;;;;;;2.17;1.58;;;;;;;;;;5019207;28;20130;-80
2023/04/03 11:23:58;;;;;;;1.92;1.80;;;;;;;;;;5020297;28;20052;-80
2023/04/03 11:26:28;;;;;;;2.10;1.90;;;;;;;;;;5024429;28;20132;-80
2023/04/03 11:28:56;;;;;;;3.40;2.03;;;;;;;;;;5023753;28;20072;-81
2023/04/03 11:31:32;;;;;;;1.50;1.40;;;;;;;;;;5024963;28;20049;-81
2023/04/03 11:34:08;;;;;;;2.67;1.88;;;;;;;;;;5040526;28;20198;-81
2023/04/03 11:36:40;;;;;;;3.67;2.10;;;;;;;;;;5025074;28;20405;-80
2023/04/03 11:39:25;;;;;;;2.28;1.60;;;;;;;;;;5022596;28;20041;-80
2023/04/03 11:41:52;;;;;;;1.77;1.67;;;;;;;;;;5034665;28;20084;-80
2023/04/03 11:44:30;;;;;;;1.92;1.52;;;;;;;;;;5042840;28;20064;-79
2023/04/03 11:46:58;;;;;;;4.03;1.90;;;;;;;;;;5030444;28;20119;-79
2023/04/03 11:49:43;;;;;;;3.45;1.67;;;;;;;;;;5031752;28;20046;-79
2023/04/03 11:52:12;;;;;;;2.83;2.00;;;;;;;;;;5027285;28;20049;-79
2023/04/03 11:54:41;;;;;;;3.15;1.90;;;;;;;;;;5041859;28;20516;-80
2023/04/03 11:57:24;;;;;;;1.92;1.75;;;;;;;;;;5024592;28;20060;-80
2023/04/03 11:59:50;;;;;;;2.00;1.80;;;;;;;;;;5027877;28;20120;-79
2023/04/03 12:02:36;;;;;;;2.10;1.60;;;;;;;;;;5013467;28;20136;-79
2023/04/03 12:05:21;;;;;;;3.08;1.95;;;;;;;;;;5030769;28;20074;-80
2023/04/03 12:08:10;;;;;;;4.22;1.98;;;;;;;;;;5030380;28;20049;-79
2023/04/03 12:10:36;;;;;;;3.28;2.00;;;;;;;;;;5015809;28;20138;-80
2023/04/03 12:13:14;;;;;;;2.40;1.65;;;;;;;;;;5029390;28;20037;-80
2023/04/03 12:15:40;;;;;;;2.25;2.03;;;;;;;;;;5017379;28;20417;-80
2023/04/03 12:18:25;;;;;;;2.17;1.70;;;;;;;;;;5015486;28;20040;-80
2023/04/03 12:20:51;;;;;;;2.40;1.80;;;;;;;;;;5029957;28;20029;-80
2023/04/03 12:23:29;;;;;;;2.92;2.28;;;;;;;;;;5036590;28;20044;-81
2023/04/03 12:26:00;;;;;;;1.83;1.73;;;;;;;;;;5016849;28;20053;-80
2023/04/03 12:28:27;;;;;;;3.20;1.90;;;;;;;;;;5032079;28;20049;-80
2023/04/03 12:30:54;;;;;;;4.30;2.00;;;;;;;;;;5037732;28;20055;-80
2023/04/03 12:33:40;;;;;;;2.50;1.80;;;;;;;;;;5023686;28;20049;-80
2023/04/03 12:36:13;;;;;;;5.32;1.88;;;;;;;;;;5019423;28;20048;-80
2023/04/03 12:38:39;;;;;;;2.65;1.58;;;;;;;;;;5040529;28;20053;-80
2023/04/03 12:41:25;;;;;;;3.25;1.98;;;;;;;;;;5022206;28;20087;-80
2023/04/03 12:43:59;;;;;;;3.25;1.90;;;;;;;;;;5022065;28;20392;-82
2023/04/03 12:46:29;;;;;;;3.60;1.83;;;;;;;;;;5037560;28;20045;-79
2023/04/03 12:48:57;;;;;;;2.00;1.90;;;;;;;;;;5025729;28;20045;-79
2023/04/03 12:51:44;;;;;;;2.00;1.80;;;;;;;;;;5035128;28;20095;-79
2023/04/03 12:54:24;;;;;;;4.07;2.10;;;;;;;;;;5024105;28;20037;-79
2023/04/03 12:56:50;;;;;;;2.05;1.70;;;;;;;;;;5025659;28;20617;-79
2023/04/03 12:59:22;;;;;;;2.97;1.80;;;;;;;;;;5045763;28;20037;-80
2023/04/03 13:02:01;;;;;;;3.67;1.95;;;;;;;;;;5038038;28;20048;-79
2023/04/03 13:04:31;;;;;;;2.40;1.60;;;;;;;;;;5053609;28;20037;-79
2023/04/03 13:06:57;;;;;;;4.25;2.00;;;;;;;;;;5029065;28;20121;-79
2023/04/03 13:09:28;;;;;;;2.33;1.58;;;;;;;;;;5028634;28;20181;-79
2023/04/03 13:12:00;;;;;;;2.60;1.80;;;;;;;;;;5017292;28;20088;-79
2023/04/03 13:14:28;;;;;;;2.53;1.70;;;;;;;;;;5022318;28;20050;-79
2023/04/03 13:16:55;;;;;;;2.00;1.67;;;;;;;;;;5016735;28;20409;-80
2023/04/03 13:19:23;;;;;;;4.05;2.00;;;;;;;;;;5016665;28;20050;-80
2023/04/03 13:21:51;;;;;;;2.40;1.60;;;;;;;;;;5027122;28;20365;-79
2023/04/03 13:24:17;;;;;;;3.60;1.80;;;;;;;;;;5038718;28;20053;-79
2023/04/03 13:26:44;;;;;;;2.40;1.77;;;;;;;;;;5017717;28;20115;-79
2023/04/03 13:29:21;;;;;;;2.63;1.58;;;;;;;;;;5019651;28;20049;-79
2023/04/03 13:31:47;;;;;;;2.42;1.90;;;;;;;;;;5015784;28;20048;-79
2023/04/03 13:34:17;;;;;;;2.13;1.70;;;;;;;;;;5034884;28;20488;-79
2023/04/03 13:36:46;;;;;;;2.65;1.83;;;;;;;;;;5051788;28;20040;-78
2023/04/03 13:39:15;;;;;;;2.13;1.75;;;;;;;;;;5037573;28;20670;-79
2023/04/03 13:41:49;;;;;;;2.08;1.67;;;;;;;;;;5029734;28;20056;-79
2023/04/03 13:44:24;;;;;;;2.72;2.20;;;;;;;;;;5041783;28;20496;-79
2023/04/03 13:46:51;;;;;;;4.75;2.20;;;;;;;;;;5023439;28;20049;-78
2023/04/03 13:49:37;;;;;;;2.85;2.13;;;;;;;;;;5045060;28;20042;-79
2023/04/03 13:52:22;;;;;;;4.00;2.13;;;;;;;;;;5033023;28;20045;-79
2023/04/03 13:54:51;;;;;;;3.03;2.17;;;;;;;;;;5016101;28;20061;-79
2023/04/03 13:57:17;;;;;;;2.38;2.13;;;;;;;;;;5033087;28;20489;-79
2023/04/03 13:59:44;;;;;;;2.88;2.22;;;;;;;;;;5015439;28;20041;-79
2023/04/03 14:02:14;;;;;;;2.90;1.90;;;;;;;;;;5014562;28;20053;-79
2023/04/03 14:04:46;;;;;;;2.78;2.13;;;;;;;;;;5029191;28;20555;-79
2023/04/03 14:07:12;;;;;;;2.63;1.90;;;;;;;;;;5038707;28;20407;-79
2023/04/03 14:09:38;;;;;;;4.15;2.17;;;;;;;;;;5026116;28;20049;-80
2023/04/03 14:12:07;;;;;;;2.67;2.13;;;;;;;;;;5044084;28;20072;-79
2023/04/03 14:14:35;;;;;;;2.10;1.90;;;;;;;;;;5033623;28;20075;-80
2023/04/03 14:17:03;;;;;;;3.22;2.00;;;;;;;;;;5033776;28;20120;-79
2023/04/03 14:19:31;;;;;;;2.92;2.08;;;;;;;;;;5031127;28;20095;-80
2023/04/03 14:21:58;;;;;;;2.35;2.00;;;;;;;;;;5029355;28;20059;-80
2023/04/03 14:24:24;;;;;;;2.22;2.03;;;;;;;;;;5030076;28;20091;-80
2023/04/03 14:26:51;;;;;;;3.15;2.13;;;;;;;;;;5009653;28;20041;-79
2023/04/03 14:29:21;;;;;;;3.85;2.10;;;;;;;;;;5013101;28;20072;-79
2023/04/03 14:31:48;;;;;;;2.40;2.20;;;;;;;;;;5033285;28;20581;-80
2023/04/03 14:34:15;;;;;;;3.25;2.20;;;;;;;;;;5033232;28;20046;-80
2023/04/03 14:36:42;;;;;;;3.15;2.05;;;;;;;;;;5014638;28;20079;-80
2023/04/03 14:39:11;;;;;;;2.47;2.22;;;;;;;;;;5031053;28;20120;-80
2023/04/03 14:41:37;;;;;;;3.08;2.38;;;;;;;;;;5031344;28;20047;-79
2023/04/03 14:44:03;;;;;;;3.53;2.13;;;;;;;;;;5016283;28;20071;-79
2023/04/03 14:46:34;;;;;;;2.63;2.08;;;;;;;;;;5018965;28;20056;-79
2023/04/03 14:49:01;;;;;;;2.58;2.10;;;;;;;;;;5029845;28;20050;-80
2023/04/03 14:51:27;;;;;;;3.00;2.15;;;;;;;;;;5020925;28;20589;-80
2023/04/03 14:53:55;;;;;;;2.40;2.00;;;;;;;;;;5035974;28;20059;-80